Terminal Aerodrome Forecast
Issued by NWS

Home | Current Version | Previous Version | Text Only | Print | Product List | Glossary On
Versions: 1 2 3 4 5 6 7 8 9 10 11 12 13
000
FTAK31 PANC 291136
TAFATK
TAF
PATK 291136Z 2912/3012 04005KT P6SM -RA SCT025 OVC040
     FM291600 VRB03KT P6SM -RA BKN025 OVC040
     FM292000 19008KT P6SM -SHRA OVC025
     FM300600 17008KT P6SM SCT025 OVC050=

USA.gov is the U.S. government's official web portal to all federal, state and local government web resources and services.